createdAt,value
2022-08-17T00:00:42.626Z,99433.38
2022-08-17T00:03:10.013Z,99428.38
2022-08-17T00:05:43.829Z,99433.19
2022-08-17T00:08:12.731Z,99434.56
2022-08-17T00:10:40.997Z,99426.22
2022-08-17T00:13:11.314Z,99426.44
2022-08-17T00:15:40.006Z,99435.16
2022-08-17T00:19:04.164Z,99430.81
2022-08-17T00:20:58.606Z,99434.44
2022-08-17T00:23:27.998Z,99429.41
2022-08-17T00:25:56.347Z,99428.84
2022-08-17T00:28:25.240Z,99430.97
2022-08-17T00:30:54.142Z,99428.59
2022-08-17T00:33:26.514Z,99430.63
2022-08-17T00:35:55.192Z,99430.00
2022-08-17T00:38:23.616Z,99425.34
2022-08-17T00:40:59.208Z,99428.97
2022-08-17T00:43:33.006Z,99427.25
2022-08-17T00:46:02.763Z,99423.69
2022-08-17T00:48:33.326Z,99422.00
2022-08-17T00:51:08.339Z,99421.16
2022-08-17T00:53:42.572Z,99415.16
2022-08-17T00:56:14.658Z,99413.84
2022-08-17T00:58:43.058Z,99414.19
2022-08-17T01:01:13.111Z,99409.91
2022-08-17T01:03:53.071Z,99418.81
2022-08-17T01:06:25.951Z,99412.44
2022-08-17T01:08:57.553Z,99416.72
2022-08-17T01:11:26.033Z,99408.66
2022-08-17T01:13:55.249Z,99409.69
2022-08-17T01:16:25.947Z,99408.50
2022-08-17T01:18:58.076Z,99413.97
2022-08-17T01:21:33.171Z,99418.41
2022-08-17T01:24:04.237Z,99409.28
2022-08-17T01:26:34.367Z,99409.50
2022-08-17T01:29:04.116Z,99413.44
2022-08-17T01:31:36.823Z,99418.88
2022-08-17T01:34:08.789Z,99410.47
2022-08-17T01:36:38.376Z,99420.84
2022-08-17T01:39:12.940Z,99420.75
2022-08-17T01:41:42.077Z,99411.56
2022-08-17T01:44:10.667Z,99415.63
2022-08-17T01:46:39.027Z,99417.44
2022-08-17T01:49:08.310Z,99418.06
2022-08-17T01:51:36.913Z,99418.97
2022-08-17T01:54:09.702Z,99423.25
2022-08-17T01:56:47.396Z,99421.81
2022-08-17T01:59:16.620Z,99413.91
2022-08-17T02:01:45.390Z,99417.66
2022-08-17T02:04:14.496Z,99416.34
2022-08-17T02:06:52.642Z,99413.50
2022-08-17T02:09:25.701Z,99411.19
2022-08-17T02:11:55.131Z,99408.38
2022-08-17T02:14:25.858Z,99410.84
2022-08-17T02:16:56.066Z,99414.13
2022-08-17T02:19:24.232Z,99406.97
2022-08-17T02:21:55.262Z,99405.16
2022-08-17T02:24:59.843Z,99405.09
2022-08-17T02:27:16.169Z,99406.38
2022-08-17T02:29:44.102Z,99404.84
2022-08-17T02:32:20.994Z,99409.31
2022-08-17T02:34:57.022Z,99404.06
2022-08-17T02:37:25.919Z,99395.06
2022-08-17T02:39:57.244Z,99405.94
2022-08-17T02:42:29.011Z,99398.28
2022-08-17T02:44:56.932Z,99414.22
2022-08-17T02:47:25.921Z,99412.09
2022-08-17T02:49:56.014Z,99402.97
2022-08-17T02:53:01.583Z,99407.38
2022-08-17T02:55:20.572Z,99408.81
2022-08-17T02:57:49.091Z,99412.09
2022-08-17T03:00:22.286Z,99414.41
2022-08-17T03:02:50.923Z,99413.66
2022-08-17T03:05:22.586Z,99419.59
2022-08-17T03:07:51.246Z,99434.91
2022-08-17T03:10:21.588Z,99432.47
2022-08-17T03:12:50.461Z,99426.25
2022-08-17T03:15:20.820Z,99428.72
2022-08-17T03:17:49.689Z,99428.06
2022-08-17T03:20:18.353Z,99428.69
2022-08-17T03:22:53.254Z,99428.38
2022-08-17T03:25:26.029Z,99426.72
2022-08-17T03:27:54.289Z,99435.16
2022-08-17T03:30:23.438Z,99443.69
2022-08-17T03:32:54.902Z,99438.78
2022-08-17T03:35:26.987Z,99437.63
2022-08-17T03:38:00.045Z,99439.63
2022-08-17T03:40:34.416Z,99439.09
2022-08-17T03:43:21.772Z,99437.47
2022-08-17T03:46:28.864Z,99433.47
2022-08-17T03:49:13.561Z,99426.53
2022-08-17T03:51:59.090Z,99422.78
2022-08-17T03:54:45.120Z,99428.53
2022-08-17T03:57:14.665Z,99426.41
2022-08-17T03:59:42.977Z,99421.50
2022-08-17T04:02:18.897Z,99430.69
2022-08-17T04:04:51.002Z,99428.19
2022-08-17T04:07:19.509Z,99423.91
2022-08-17T04:09:47.915Z,99425.78
2022-08-17T04:12:19.111Z,99417.56
2022-08-17T04:14:53.562Z,99410.66
2022-08-17T04:17:24.301Z,99406.63
2022-08-17T04:19:53.021Z,99403.97
2022-08-17T04:22:30.732Z,99413.19
2022-08-17T04:25:00.084Z,99416.28
2022-08-17T04:27:29.800Z,99423.13
2022-08-17T04:29:58.654Z,99427.56
2022-08-17T04:33:05.366Z,99425.09
2022-08-17T04:35:19.353Z,99422.44
2022-08-17T04:37:47.540Z,99430.47
2022-08-17T04:40:32.850Z,99429.75
2022-08-17T04:43:07.580Z,99417.38
2022-08-17T04:45:39.318Z,99420.50
2022-08-17T04:48:08.290Z,99423.94
2022-08-17T04:50:37.977Z,99428.81
2022-08-17T04:53:08.264Z,99428.22
2022-08-17T04:55:36.355Z,99434.59
2022-08-17T04:58:06.448Z,99437.88
2022-08-17T05:00:35.167Z,99438.47
2022-08-17T05:03:03.253Z,99444.31
2022-08-17T05:05:34.242Z,99443.31
2022-08-17T05:08:04.970Z,99453.19
2022-08-17T05:10:36.947Z,99457.84
2022-08-17T05:13:12.427Z,99474.75
2022-08-17T05:15:44.925Z,99477.22
2022-08-17T05:18:13.302Z,99486.34
2022-08-17T05:20:42.020Z,99486.06
2022-08-17T05:23:12.851Z,99487.81
2022-08-17T05:25:47.338Z,99516.94
2022-08-17T05:28:18.409Z,99487.63
2022-08-17T05:30:49.193Z,99479.06
2022-08-17T05:33:19.880Z,99464.13
2022-08-17T05:35:49.991Z,99470.22
2022-08-17T05:38:20.996Z,99472.03
2022-08-17T05:40:49.946Z,99481.25
2022-08-17T05:43:23.318Z,99485.53
2022-08-17T05:45:56.594Z,99478.81
2022-08-17T05:48:39.160Z,99483.91
2022-08-17T05:51:22.404Z,99478.94
2022-08-17T05:53:57.578Z,99468.25
2022-08-17T05:56:35.271Z,99482.81
2022-08-17T05:59:15.376Z,99483.38
2022-08-17T06:01:53.494Z,99471.19
2022-08-17T06:04:31.376Z,99466.06
2022-08-17T06:07:07.922Z,99485.03
2022-08-17T06:09:41.077Z,99483.00
2022-08-17T06:12:28.890Z,99485.19
2022-08-17T06:15:14.559Z,99480.31
2022-08-17T06:17:44.285Z,99486.44
2022-08-17T06:20:15.472Z,99493.53
2022-08-17T06:22:47.336Z,99498.66
2022-08-17T06:25:19.244Z,99505.22
2022-08-17T06:27:53.712Z,99521.22
2022-08-17T06:30:26.391Z,99512.03
2022-08-17T06:32:59.544Z,99501.19
2022-08-17T06:35:34.695Z,99511.63
2022-08-17T06:38:10.410Z,99513.84
2022-08-17T06:41:10.158Z,99506.91
2022-08-17T06:43:49.764Z,99510.31
2022-08-17T06:46:25.477Z,99521.63
2022-08-17T06:49:11.809Z,99510.78
2022-08-17T06:51:42.561Z,99512.81
2022-08-17T06:54:19.411Z,99503.63
2022-08-17T06:56:55.306Z,99510.34
2022-08-17T06:59:35.673Z,99518.94
2022-08-17T07:02:29.095Z,99527.69
2022-08-17T07:05:14.068Z,99519.75
2022-08-17T07:08:02.944Z,99517.19
2022-08-17T07:10:40.167Z,99504.59
2022-08-17T07:13:38.682Z,99508.38
2022-08-17T07:16:17.167Z,99518.13
2022-08-17T07:18:47.810Z,99514.66
2022-08-17T07:21:26.872Z,99523.16
2022-08-17T07:24:08.342Z,99522.72
2022-08-17T07:26:38.888Z,99520.56
2022-08-17T07:29:07.128Z,99520.28
2022-08-17T07:31:39.357Z,99514.31
2022-08-17T07:34:14.852Z,99525.84
2022-08-17T07:36:43.609Z,99538.25
2022-08-17T07:39:12.072Z,99538.78
2022-08-17T07:41:57.405Z,99539.38
2022-08-17T07:44:27.675Z,99544.50
2022-08-17T07:47:13.579Z,99533.19
2022-08-17T07:49:46.809Z,99533.03
2022-08-17T07:52:51.714Z,99534.63
2022-08-17T07:55:29.499Z,99519.72
2022-08-17T07:58:00.527Z,99508.03
2022-08-17T08:00:31.951Z,99511.81
2022-08-17T08:03:05.994Z,99516.72
2022-08-17T08:05:50.286Z,99520.19
2022-08-17T08:08:32.334Z,99552.25
2022-08-17T08:11:08.402Z,99569.44
2022-08-17T08:13:42.351Z,99568.81
2022-08-17T08:16:24.958Z,99568.31
2022-08-17T08:18:57.523Z,99571.34
2022-08-17T08:21:37.443Z,99565.44
2022-08-17T08:24:21.565Z,99570.94
2022-08-17T08:26:58.200Z,99584.16
2022-08-17T08:29:33.597Z,99576.94
2022-08-17T08:32:10.810Z,99595.59
2022-08-17T08:35:02.121Z,99592.00
2022-08-17T08:37:58.117Z,99571.19
2022-08-17T08:40:39.818Z,99574.66
2022-08-17T08:43:22.795Z,99566.06
2022-08-17T08:45:58.110Z,99565.53
2022-08-17T08:48:58.303Z,99559.06
2022-08-17T08:51:39.303Z,99560.53
2022-08-17T08:54:17.769Z,99562.53
2022-08-17T08:57:23.178Z,99565.13
2022-08-17T09:00:02.110Z,99567.19
2022-08-17T09:02:49.429Z,99577.94
2022-08-17T09:05:30.379Z,99586.03
2022-08-17T09:08:05.407Z,99595.22
2022-08-17T09:10:48.260Z,99588.16
2022-08-17T09:13:23.331Z,99582.72
2022-08-17T09:15:59.159Z,99585.38
2022-08-17T09:19:01.747Z,99592.53
2022-08-17T09:21:29.765Z,99589.44
2022-08-17T09:24:11.496Z,99585.34
2022-08-17T09:26:49.142Z,99600.81
2022-08-17T09:29:18.675Z,99611.34
2022-08-17T09:31:55.244Z,99609.50
2022-08-17T09:34:33.610Z,99595.09
2022-08-17T09:37:17.310Z,99591.63
2022-08-17T09:39:52.660Z,99595.09
2022-08-17T09:42:31.329Z,99599.91
2022-08-17T09:45:11.320Z,99592.41
2022-08-17T09:47:45.751Z,99596.50
2022-08-17T09:50:20.218Z,99608.31
2022-08-17T09:53:08.890Z,99609.09
2022-08-17T09:55:50.781Z,99619.94
2022-08-17T09:58:29.174Z,99618.28
2022-08-17T10:01:03.921Z,99629.16
2022-08-17T10:03:55.939Z,99629.88
2022-08-17T10:06:31.537Z,99638.34
2022-08-17T10:09:08.999Z,99645.88
2022-08-17T10:12:00.780Z,99626.13
2022-08-17T10:14:44.151Z,99632.28
2022-08-17T10:17:26.921Z,99624.25
2022-08-17T10:20:02.809Z,99612.31
2022-08-17T10:22:56.571Z,99630.84
2022-08-17T10:25:54.526Z,99623.09
2022-08-17T10:28:29.801Z,99619.59
2022-08-17T10:31:30.866Z,99625.66
2022-08-17T10:34:11.344Z,99636.78
2022-08-17T10:36:56.318Z,99650.75
2022-08-17T10:39:32.658Z,99637.41
2022-08-17T10:42:13.202Z,99645.59
2022-08-17T10:45:03.332Z,99656.19
2022-08-17T10:48:05.884Z,99667.78
2022-08-17T10:50:49.766Z,99659.16
2022-08-17T10:53:56.412Z,99666.81
2022-08-17T10:56:48.160Z,99665.22
2022-08-17T10:59:52.216Z,99665.31
2022-08-17T11:02:45.849Z,99657.00
2022-08-17T11:08:57.616Z,99674.25
2022-08-17T11:11:47.717Z,99670.78
2022-08-17T11:14:35.139Z,99653.31
2022-08-17T11:17:16.558Z,99660.41
2022-08-17T11:20:02.507Z,99654.97
2022-08-17T11:23:14.712Z,99661.31
2022-08-17T11:25:47.331Z,99657.75
2022-08-17T11:28:19.831Z,99668.47
2022-08-17T11:30:55.206Z,99663.34
2022-08-17T11:33:55.609Z,99658.44
2022-08-17T11:37:11.288Z,99664.03
2022-08-17T11:39:55.762Z,99678.50
2022-08-17T11:42:39.474Z,99689.78
2022-08-17T11:45:32.145Z,99677.41
2022-08-17T11:48:28.215Z,99665.41
2022-08-17T11:51:19.307Z,99668.09
2022-08-17T11:56:54.112Z,99687.81
2022-08-17T11:59:55.571Z,99681.50
2022-08-17T12:02:39.054Z,99685.13
2022-08-17T12:05:42.040Z,99669.81
2022-08-17T12:08:19.887Z,99673.38
2022-08-17T12:10:58.277Z,99669.28
2022-08-17T12:13:35.198Z,99661.66
2022-08-17T12:16:10.162Z,99662.72
2022-08-17T12:18:42.214Z,99661.38
2022-08-17T12:21:27.151Z,99657.44
2022-08-17T12:24:06.684Z,99663.81
2022-08-17T12:26:37.370Z,99650.91
2022-08-17T12:29:09.424Z,99661.19
2022-08-17T12:31:50.124Z,99666.06
2022-08-17T12:34:23.956Z,99662.09
2022-08-17T12:36:59.167Z,99660.03
2022-08-17T12:39:28.241Z,99664.34
2022-08-17T12:42:03.201Z,99660.31
2022-08-17T12:44:32.764Z,99650.63
2022-08-17T12:47:04.748Z,99651.78
2022-08-17T12:49:37.098Z,99648.81
2022-08-17T12:52:14.876Z,99646.09
2022-08-17T12:54:55.815Z,99653.22
2022-08-17T12:57:26.934Z,99653.34
2022-08-17T13:00:01.533Z,99654.63
2022-08-17T13:02:41.413Z,99646.56
2022-08-17T13:05:19.126Z,99640.94
2022-08-17T13:07:49.236Z,99646.31
2022-08-17T13:10:22.581Z,99642.50
2022-08-17T13:12:51.471Z,99649.19
2022-08-17T13:15:28.283Z,99644.75
2022-08-17T13:18:05.318Z,99626.34
2022-08-17T13:20:39.302Z,99609.34
2022-08-17T13:23:12.664Z,99604.22
2022-08-17T13:25:41.233Z,99600.41
2022-08-17T13:28:29.902Z,99597.03
2022-08-17T13:31:38.558Z,99597.41
2022-08-17T13:35:07.759Z,99604.69
2022-08-17T13:37:32.838Z,99606.75
2022-08-17T13:40:23.198Z,99609.59
2022-08-17T13:42:54.302Z,99602.47
2022-08-17T13:45:50.770Z,99590.28
2022-08-17T13:48:29.371Z,99609.72
2022-08-17T13:51:24.714Z,99612.91
2022-08-17T13:54:01.022Z,99609.03
2022-08-17T13:56:39.385Z,99606.97
2022-08-17T13:59:12.497Z,99603.31
2022-08-17T14:01:44.302Z,99594.78
2022-08-17T14:04:14.237Z,99597.00
2022-08-17T14:06:51.809Z,99602.13
2022-08-17T14:09:25.171Z,99597.66
2022-08-17T14:11:55.216Z,99587.66
2022-08-17T14:14:23.721Z,99576.28
2022-08-17T14:16:52.313Z,99571.00
2022-08-17T14:19:22.738Z,99579.75
2022-08-17T14:21:51.262Z,99599.59
2022-08-17T14:24:28.106Z,99590.06
2022-08-17T14:26:58.485Z,99579.91
2022-08-17T14:29:31.545Z,99582.28
2022-08-17T14:32:03.273Z,99575.50
2022-08-17T14:34:32.408Z,99573.53
2022-08-17T14:37:00.894Z,99569.88
2022-08-17T14:39:30.354Z,99562.63
2022-08-17T14:41:59.406Z,99565.38
2022-08-17T14:44:27.743Z,99572.34
2022-08-17T14:46:56.038Z,99574.81
2022-08-17T14:49:26.046Z,99566.06
2022-08-17T14:51:54.076Z,99582.19
2022-08-17T14:54:33.581Z,99569.03
2022-08-17T14:57:22.642Z,99566.88
2022-08-17T14:59:54.811Z,99568.03
2022-08-17T15:02:29.191Z,99570.09
2022-08-17T15:05:03.502Z,99566.34
2022-08-17T15:07:31.968Z,99562.81
2022-08-17T15:10:01.495Z,99562.50
2022-08-17T15:12:34.132Z,99558.91
2022-08-17T15:15:04.510Z,99547.25
2022-08-17T15:17:54.740Z,99554.13
2022-08-17T15:20:25.306Z,99547.28
2022-08-17T15:22:56.034Z,99539.09
2022-08-17T15:25:27.730Z,99527.03
2022-08-17T15:27:57.524Z,99534.97
2022-08-17T15:30:26.746Z,99551.19
2022-08-17T15:32:55.827Z,99552.56
2022-08-17T15:35:27.141Z,99546.22
2022-08-17T15:37:56.791Z,99557.72
2022-08-17T15:40:28.197Z,99545.53
2022-08-17T15:42:59.738Z,99544.25
2022-08-17T15:45:31.153Z,99544.63
2022-08-17T15:47:59.377Z,99539.56
2022-08-17T15:50:27.299Z,99535.09
2022-08-17T15:52:57.983Z,99531.09
2022-08-17T15:55:28.309Z,99534.00
2022-08-17T15:57:56.513Z,99520.06
2022-08-17T16:00:28.395Z,99517.50
2022-08-17T16:03:45.050Z,99514.44
2022-08-17T16:05:50.357Z,99509.94
2022-08-17T16:08:21.254Z,99512.16
2022-08-17T16:10:50.381Z,99503.50
2022-08-17T16:13:19.608Z,99503.19
2022-08-17T16:15:57.259Z,99501.19
2022-08-17T16:18:31.070Z,99497.81
2022-08-17T16:21:22.710Z,99493.63
2022-08-17T16:23:54.046Z,99495.09
2022-08-17T16:26:23.149Z,99490.34
2022-08-17T16:28:51.993Z,99479.97
2022-08-17T16:31:22.071Z,99480.91
2022-08-17T16:34:03.757Z,99482.88
2022-08-17T16:36:39.715Z,99478.41
2022-08-17T16:39:08.458Z,99485.16
2022-08-17T16:41:45.423Z,99481.06
2022-08-17T16:44:17.007Z,99477.34
2022-08-17T16:46:47.525Z,99476.03
2022-08-17T16:49:35.921Z,99482.00
2022-08-17T16:52:11.070Z,99480.28
2022-08-17T16:54:43.613Z,99482.53
2022-08-17T16:57:12.706Z,99478.59
2022-08-17T16:59:43.922Z,99481.28
2022-08-17T17:02:24.694Z,99481.22
2022-08-17T17:04:57.765Z,99478.34
2022-08-17T17:08:01.127Z,99478.94
2022-08-17T17:10:35.197Z,99481.38
2022-08-17T17:13:04.977Z,99471.72
2022-08-17T17:15:47.857Z,99471.41
2022-08-17T17:18:17.788Z,99468.34
2022-08-17T17:20:53.638Z,99458.94
2022-08-17T17:23:44.114Z,99460.25
2022-08-17T17:26:38.085Z,99457.47
2022-08-17T17:29:21.090Z,99456.69
2022-08-17T17:31:56.868Z,99460.19
2022-08-17T17:34:30.653Z,99464.44
2022-08-17T17:37:02.692Z,99459.19
2022-08-17T17:39:43.599Z,99461.84
2022-08-17T17:42:16.608Z,99463.44
2022-08-17T17:44:54.449Z,99461.31
2022-08-17T17:47:22.936Z,99457.31
2022-08-17T17:49:54.866Z,99462.00
2022-08-17T17:52:33.300Z,99459.09
2022-08-17T17:55:16.307Z,99462.81
2022-08-17T17:57:54.668Z,99465.53
2022-08-17T18:00:25.424Z,99460.41
2022-08-17T18:03:07.231Z,99455.78
2022-08-17T18:05:53.125Z,99452.84
2022-08-17T18:08:37.617Z,99452.25
2022-08-17T18:11:24.011Z,99447.03
2022-08-17T18:14:06.715Z,99460.22
2022-08-17T18:16:36.450Z,99459.84
2022-08-17T18:19:06.078Z,99451.09
2022-08-17T18:21:44.359Z,99456.44
2022-08-17T18:24:14.281Z,99451.66
2022-08-17T18:26:59.457Z,99453.53
2022-08-17T18:29:34.559Z,99448.50
2022-08-17T18:32:32.452Z,99449.28
2022-08-17T18:35:03.681Z,99449.03
2022-08-17T18:37:40.553Z,99448.22
2022-08-17T18:40:32.216Z,99442.28
2022-08-17T18:43:07.629Z,99450.78
2022-08-17T18:45:46.111Z,99456.47
2022-08-17T18:48:24.624Z,99466.00
2022-08-17T18:50:54.888Z,99460.38
2022-08-17T18:53:34.160Z,99458.09
2022-08-17T18:56:28.104Z,99459.81
2022-08-17T18:59:17.298Z,99466.16
2022-08-17T19:02:00.556Z,99462.38
2022-08-17T19:04:35.407Z,99468.75
2022-08-17T19:07:12.389Z,99475.22
2022-08-17T19:09:48.305Z,99475.31
2022-08-17T19:12:27.319Z,99482.13
2022-08-17T19:14:57.685Z,99490.19
2022-08-17T19:17:33.308Z,99492.94
2022-08-17T19:20:09.417Z,99492.50
2022-08-17T19:22:50.948Z,99492.72
2022-08-17T19:25:24.327Z,99491.56
2022-08-17T19:28:00.762Z,99506.78
2022-08-17T19:30:32.906Z,99511.03
2022-08-17T19:33:03.498Z,99520.91
2022-08-17T19:35:42.219Z,99514.41
2022-08-17T19:38:20.834Z,99511.13
2022-08-17T19:41:04.290Z,99506.03
2022-08-17T19:43:42.664Z,99495.59
2022-08-17T19:46:18.613Z,99508.81
2022-08-17T19:48:56.491Z,99510.06
2022-08-17T19:51:31.767Z,99513.56
2022-08-17T19:54:07.175Z,99503.09
2022-08-17T19:56:48.791Z,99512.41
2022-08-17T19:59:26.838Z,99513.81
2022-08-17T20:02:01.296Z,99507.06
2022-08-17T20:04:37.614Z,99505.66
2022-08-17T20:07:12.985Z,99507.72
2022-08-17T20:09:45.259Z,99505.28
2022-08-17T20:12:18.447Z,99513.75
2022-08-17T20:14:55.237Z,99510.44
2022-08-17T20:17:28.604Z,99513.69
2022-08-17T20:20:03.344Z,99518.38
2022-08-17T20:22:49.639Z,99518.69
2022-08-17T20:25:30.453Z,99514.84
2022-08-17T20:28:07.426Z,99506.06
2022-08-17T20:30:39.139Z,99506.88
2022-08-17T20:33:13.093Z,99510.94
2022-08-17T20:36:03.456Z,99506.03
2022-08-17T20:38:42.968Z,99506.38
2022-08-17T20:41:16.447Z,99507.97
2022-08-17T20:43:52.336Z,99505.09
2022-08-17T20:46:50.104Z,99504.38
2022-08-17T20:49:28.834Z,99496.91
2022-08-17T20:52:02.722Z,99493.91
2022-08-17T20:54:48.686Z,99501.66
2022-08-17T20:57:47.527Z,99501.44
2022-08-17T21:00:50.525Z,99497.97
2022-08-17T21:03:52.231Z,99501.66
2022-08-17T21:06:24.967Z,99505.50
2022-08-17T21:08:58.659Z,99507.47
2022-08-17T21:11:57.060Z,99512.97
2022-08-17T21:15:01.724Z,99518.00
2022-08-17T21:17:42.318Z,99523.44
2022-08-17T21:20:32.274Z,99515.41
2022-08-17T21:23:29.055Z,99521.28
2022-08-17T21:26:30.225Z,99519.75
2022-08-17T21:29:30.246Z,99521.06
2022-08-17T21:32:24.686Z,99530.84
2022-08-17T21:35:25.350Z,99537.13
2022-08-17T21:38:05.372Z,99539.63
2022-08-17T21:40:36.897Z,99544.22
2022-08-17T21:43:18.649Z,99543.31
2022-08-17T21:45:58.725Z,99539.91
2022-08-17T21:48:30.000Z,99549.19
2022-08-17T21:51:09.044Z,99551.72
2022-08-17T21:53:47.475Z,99561.56
2022-08-17T21:56:25.920Z,99568.44
2022-08-17T21:59:02.994Z,99575.94
2022-08-17T22:01:35.677Z,99565.19
2022-08-17T22:04:08.732Z,99562.00
2022-08-17T22:06:41.253Z,99557.41
2022-08-17T22:09:16.235Z,99550.72
2022-08-17T22:11:57.365Z,99546.09
2022-08-17T22:14:53.470Z,99549.94
2022-08-17T22:17:21.258Z,99554.00
2022-08-17T22:19:52.743Z,99555.91
2022-08-17T22:22:30.869Z,99552.22
2022-08-17T22:25:05.262Z,99553.31
2022-08-17T22:27:51.664Z,99551.28
2022-08-17T22:30:38.788Z,99543.69
2022-08-17T22:33:37.084Z,99550.22
2022-08-17T22:36:22.977Z,99566.03
2022-08-17T22:38:54.774Z,99562.13
2022-08-17T22:41:43.727Z,99564.47
2022-08-17T22:44:19.125Z,99552.69
2022-08-17T22:46:57.958Z,99555.56
2022-08-17T22:49:30.011Z,99563.88
2022-08-17T22:52:19.526Z,99575.50
2022-08-17T22:55:08.299Z,99576.19
2022-08-17T22:57:51.942Z,99580.38
2022-08-17T23:00:34.115Z,99593.34
2022-08-17T23:03:09.458Z,99595.22
2022-08-17T23:05:38.878Z,99595.97
2022-08-17T23:08:06.825Z,99599.50
2022-08-17T23:10:41.362Z,99610.25
2022-08-17T23:13:12.010Z,99608.34
2022-08-17T23:15:41.751Z,99621.31
2022-08-17T23:18:10.159Z,99602.16
2022-08-17T23:20:41.720Z,99605.72
2022-08-17T23:23:11.085Z,99612.00
2022-08-17T23:25:41.059Z,99610.56
2022-08-17T23:28:09.197Z,99608.91
2022-08-17T23:30:41.381Z,99615.22
2022-08-17T23:33:14.490Z,99604.72
2022-08-17T23:35:43.492Z,99608.00
2022-08-17T23:38:13.947Z,99600.59
2022-08-17T23:40:43.530Z,99605.34
2022-08-17T23:43:23.720Z,99608.72
2022-08-17T23:45:57.724Z,99611.88
2022-08-17T23:48:35.210Z,99611.50
2022-08-17T23:51:09.518Z,99603.56
2022-08-17T23:53:40.225Z,99602.56
2022-08-17T23:56:11.348Z,99602.78
2022-08-17T23:58:42.502Z,99596.22
